sensor_id;sensor_type;location;lat;lon;timestamp;P1;durP1;ratioP1;P2;durP2;ratioP2
15356;SDS011;7778;48.792;9.260;2024-01-30T00:01:10;18.80;;;7.70;;
15356;SDS011;7778;48.792;9.260;2024-01-30T00:03:57;15.00;;;6.85;;
15356;SDS011;7778;48.792;9.260;2024-01-30T00:06:43;20.10;;;7.43;;
15356;SDS011;7778;48.792;9.260;2024-01-30T00:09:28;17.48;;;6.72;;
15356;SDS011;7778;48.792;9.260;2024-01-30T00:12:14;19.13;;;8.25;;
15356;SDS011;7778;48.792;9.260;2024-01-30T00:14:59;13.68;;;5.55;;
15356;SDS011;7778;48.792;9.260;2024-01-30T00:17:45;10.27;;;5.28;;
15356;SDS011;7778;48.792;9.260;2024-01-30T00:20:32;11.20;;;5.97;;
15356;SDS011;7778;48.792;9.260;2024-01-30T00:23:17;10.20;;;5.53;;
15356;SDS011;7778;48.792;9.260;2024-01-30T00:26:03;6.65;;;3.97;;
15356;SDS011;7778;48.792;9.260;2024-01-30T00:28:49;12.48;;;4.72;;
15356;SDS011;7778;48.792;9.260;2024-01-30T00:31:35;9.07;;;4.22;;
15356;SDS011;7778;48.792;9.260;2024-01-30T00:34:20;9.88;;;4.03;;
15356;SDS011;7778;48.792;9.260;2024-01-30T00:37:07;6.95;;;3.60;;
15356;SDS011;7778;48.792;9.260;2024-01-30T00:39:53;6.47;;;3.72;;
15356;SDS011;7778;48.792;9.260;2024-01-30T00:42:39;8.80;;;3.90;;
15356;SDS011;7778;48.792;9.260;2024-01-30T00:45:24;4.85;;;3.17;;
15356;SDS011;7778;48.792;9.260;2024-01-30T00:48:10;7.78;;;4.13;;
15356;SDS011;7778;48.792;9.260;2024-01-30T00:50:55;7.97;;;3.92;;
15356;SDS011;7778;48.792;9.260;2024-01-30T00:53:42;10.88;;;3.72;;
15356;SDS011;7778;48.792;9.260;2024-01-30T00:56:28;8.10;;;4.20;;
15356;SDS011;7778;48.792;9.260;2024-01-30T00:59:14;7.03;;;3.65;;
15356;SDS011;7778;48.792;9.260;2024-01-30T01:02:00;7.22;;;3.97;;
15356;SDS011;7778;48.792;9.260;2024-01-30T01:04:45;11.05;;;3.88;;
15356;SDS011;7778;48.792;9.260;2024-01-30T01:07:31;7.78;;;3.92;;
15356;SDS011;7778;48.792;9.260;2024-01-30T01:10:18;9.75;;;4.47;;
15356;SDS011;7778;48.792;9.260;2024-01-30T01:13:04;11.43;;;5.82;;
15356;SDS011;7778;48.792;9.260;2024-01-30T01:15:49;9.90;;;5.35;;
15356;SDS011;7778;48.792;9.260;2024-01-30T01:18:35;12.23;;;5.72;;
15356;SDS011;7778;48.792;9.260;2024-01-30T01:21:20;11.40;;;5.40;;
15356;SDS011;7778;48.792;9.260;2024-01-30T01:24:06;10.10;;;5.50;;
15356;SDS011;7778;48.792;9.260;2024-01-30T01:26:54;8.18;;;5.15;;
15356;SDS011;7778;48.792;9.260;2024-01-30T01:29:40;7.65;;;5.22;;
15356;SDS011;7778;48.792;9.260;2024-01-30T01:32:27;12.70;;;5.88;;
15356;SDS011;7778;48.792;9.260;2024-01-30T01:35:12;8.52;;;4.45;;
15356;SDS011;7778;48.792;9.260;2024-01-30T01:37:58;8.65;;;4.63;;
15356;SDS011;7778;48.792;9.260;2024-01-30T01:40:43;8.82;;;4.60;;
15356;SDS011;7778;48.792;9.260;2024-01-30T01:43:30;7.75;;;4.30;;
15356;SDS011;7778;48.792;9.260;2024-01-30T01:46:16;7.55;;;4.47;;
15356;SDS011;7778;48.792;9.260;2024-01-30T01:49:03;9.50;;;4.15;;
15356;SDS011;7778;48.792;9.260;2024-01-30T01:51:50;9.43;;;4.50;;
15356;SDS011;7778;48.792;9.260;2024-01-30T01:54:40;11.85;;;4.50;;
15356;SDS011;7778;48.792;9.260;2024-01-30T01:57:26;9.23;;;4.78;;
15356;SDS011;7778;48.792;9.260;2024-01-30T02:00:13;7.82;;;4.10;;
15356;SDS011;7778;48.792;9.260;2024-01-30T02:03:00;8.80;;;5.25;;
15356;SDS011;7778;48.792;9.260;2024-01-30T02:05:45;10.65;;;4.75;;
15356;SDS011;7778;48.792;9.260;2024-01-30T02:08:32;8.55;;;5.18;;
15356;SDS011;7778;48.792;9.260;2024-01-30T02:11:18;11.10;;;5.80;;
15356;SDS011;7778;48.792;9.260;2024-01-30T02:14:05;11.27;;;5.05;;
15356;SDS011;7778;48.792;9.260;2024-01-30T02:16:52;7.85;;;4.85;;
15356;SDS011;7778;48.792;9.260;2024-01-30T02:19:37;10.95;;;6.03;;
15356;SDS011;7778;48.792;9.260;2024-01-30T02:22:24;10.38;;;5.43;;
15356;SDS011;7778;48.792;9.260;2024-01-30T02:25:10;9.68;;;5.80;;
15356;SDS011;7778;48.792;9.260;2024-01-30T02:27:56;9.70;;;4.38;;
15356;SDS011;7778;48.792;9.260;2024-01-30T02:30:42;5.78;;;3.70;;
15356;SDS011;7778;48.792;9.260;2024-01-30T02:33:28;9.65;;;4.97;;
15356;SDS011;7778;48.792;9.260;2024-01-30T02:36:14;8.38;;;4.85;;
15356;SDS011;7778;48.792;9.260;2024-01-30T02:39:02;10.02;;;6.13;;
15356;SDS011;7778;48.792;9.260;2024-01-30T02:41:47;10.98;;;5.38;;
15356;SDS011;7778;48.792;9.260;2024-01-30T02:44:33;8.05;;;4.25;;
15356;SDS011;7778;48.792;9.260;2024-01-30T02:47:19;11.52;;;4.50;;
15356;SDS011;7778;48.792;9.260;2024-01-30T02:50:04;7.97;;;5.15;;
15356;SDS011;7778;48.792;9.260;2024-01-30T02:52:51;7.78;;;4.47;;
15356;SDS011;7778;48.792;9.260;2024-01-30T02:55:38;8.10;;;4.38;;
15356;SDS011;7778;48.792;9.260;2024-01-30T02:58:23;8.93;;;4.55;;
15356;SDS011;7778;48.792;9.260;2024-01-30T03:01:09;9.43;;;5.32;;
15356;SDS011;7778;48.792;9.260;2024-01-30T03:03:54;11.48;;;5.47;;
15356;SDS011;7778;48.792;9.260;2024-01-30T03:06:44;12.32;;;4.53;;
15356;SDS011;7778;48.792;9.260;2024-01-30T03:09:31;10.32;;;5.10;;
15356;SDS011;7778;48.792;9.260;2024-01-30T03:12:18;7.68;;;3.97;;
15356;SDS011;7778;48.792;9.260;2024-01-30T03:15:04;7.43;;;4.53;;
15356;SDS011;7778;48.792;9.260;2024-01-30T03:17:50;11.40;;;4.43;;
15356;SDS011;7778;48.792;9.260;2024-01-30T03:20:35;7.85;;;4.38;;
15356;SDS011;7778;48.792;9.260;2024-01-30T03:23:21;7.20;;;4.00;;
15356;SDS011;7778;48.792;9.260;2024-01-30T03:26:06;7.90;;;4.47;;
15356;SDS011;7778;48.792;9.260;2024-01-30T03:28:54;10.98;;;4.97;;
15356;SDS011;7778;48.792;9.260;2024-01-30T03:31:39;8.23;;;4.50;;
15356;SDS011;7778;48.792;9.260;2024-01-30T03:34:25;10.32;;;5.75;;
15356;SDS011;7778;48.792;9.260;2024-01-30T03:37:10;13.40;;;5.22;;
15356;SDS011;7778;48.792;9.260;2024-01-30T03:39:56;7.00;;;4.30;;
15356;SDS011;7778;48.792;9.260;2024-01-30T03:42:42;12.88;;;6.40;;
15356;SDS011;7778;48.792;9.260;2024-01-30T03:45:29;12.55;;;5.55;;
15356;SDS011;7778;48.792;9.260;2024-01-30T03:48:14;11.32;;;5.43;;
15356;SDS011;7778;48.792;9.260;2024-01-30T03:51:00;12.25;;;5.40;;
15356;SDS011;7778;48.792;9.260;2024-01-30T03:53:45;12.00;;;5.63;;
15356;SDS011;7778;48.792;9.260;2024-01-30T03:56:31;11.15;;;5.55;;
15356;SDS011;7778;48.792;9.260;2024-01-30T03:59:17;9.35;;;5.25;;
15356;SDS011;7778;48.792;9.260;2024-01-30T04:02:09;9.07;;;5.18;;
15356;SDS011;7778;48.792;9.260;2024-01-30T04:04:55;8.25;;;4.78;;
15356;SDS011;7778;48.792;9.260;2024-01-30T04:07:41;9.63;;;4.80;;
15356;SDS011;7778;48.792;9.260;2024-01-30T04:10:26;9.48;;;4.95;;
15356;SDS011;7778;48.792;9.260;2024-01-30T04:13:12;8.52;;;5.40;;
15356;SDS011;7778;48.792;9.260;2024-01-30T04:15:58;13.90;;;5.40;;
15356;SDS011;7778;48.792;9.260;2024-01-30T04:18:46;10.95;;;5.20;;
15356;SDS011;7778;48.792;9.260;2024-01-30T04:21:31;7.15;;;4.90;;
15356;SDS011;7778;48.792;9.260;2024-01-30T04:24:17;11.07;;;5.20;;
15356;SDS011;7778;48.792;9.260;2024-01-30T04:27:03;12.02;;;5.32;;
15356;SDS011;7778;48.792;9.260;2024-01-30T04:29:49;9.73;;;5.70;;
15356;SDS011;7778;48.792;9.260;2024-01-30T04:32:34;11.07;;;6.03;;
15356;SDS011;7778;48.792;9.260;2024-01-30T04:35:22;8.57;;;5.20;;
15356;SDS011;7778;48.792;9.260;2024-01-30T04:38:08;11.55;;;5.20;;
15356;SDS011;7778;48.792;9.260;2024-01-30T04:40:54;11.52;;;5.18;;
15356;SDS011;7778;48.792;9.260;2024-01-30T04:43:39;9.07;;;5.13;;
15356;SDS011;7778;48.792;9.260;2024-01-30T04:46:25;11.82;;;5.95;;
15356;SDS011;7778;48.792;9.260;2024-01-30T04:49:10;11.43;;;6.32;;
15356;SDS011;7778;48.792;9.260;2024-01-30T04:51:57;9.02;;;5.13;;
15356;SDS011;7778;48.792;9.260;2024-01-30T04:54:42;14.55;;;5.82;;
15356;SDS011;7778;48.792;9.260;2024-01-30T04:57:28;19.40;;;8.20;;
15356;SDS011;7778;48.792;9.260;2024-01-30T05:00:14;9.15;;;5.00;;
15356;SDS011;7778;48.792;9.260;2024-01-30T05:03:01;7.88;;;4.55;;
15356;SDS011;7778;48.792;9.260;2024-01-30T05:05:47;9.98;;;5.43;;
15356;SDS011;7778;48.792;9.260;2024-01-30T05:08:34;9.70;;;5.03;;
15356;SDS011;7778;48.792;9.260;2024-01-30T05:11:20;11.30;;;5.00;;
15356;SDS011;7778;48.792;9.260;2024-01-30T05:14:06;9.32;;;5.32;;
15356;SDS011;7778;48.792;9.260;2024-01-30T05:16:52;11.32;;;5.45;;
15356;SDS011;7778;48.792;9.260;2024-01-30T05:19:38;11.68;;;5.65;;
15356;SDS011;7778;48.792;9.260;2024-01-30T05:22:23;12.30;;;5.95;;
15356;SDS011;7778;48.792;9.260;2024-01-30T05:25:10;11.57;;;6.05;;
15356;SDS011;7778;48.792;9.260;2024-01-30T05:27:56;10.48;;;5.57;;
15356;SDS011;7778;48.792;9.260;2024-01-30T05:30:41;9.43;;;4.80;;
15356;SDS011;7778;48.792;9.260;2024-01-30T05:33:27;15.07;;;6.18;;
15356;SDS011;7778;48.792;9.260;2024-01-30T05:36:13;12.23;;;6.25;;
15356;SDS011;7778;48.792;9.260;2024-01-30T05:38:59;12.82;;;6.47;;
15356;SDS011;7778;48.792;9.260;2024-01-30T05:41:45;14.70;;;5.88;;
15356;SDS011;7778;48.792;9.260;2024-01-30T05:44:31;10.23;;;5.78;;
15356;SDS011;7778;48.792;9.260;2024-01-30T05:47:16;14.27;;;5.97;;
15356;SDS011;7778;48.792;9.260;2024-01-30T05:50:02;9.43;;;5.85;;
15356;SDS011;7778;48.792;9.260;2024-01-30T05:52:49;10.85;;;5.18;;
15356;SDS011;7778;48.792;9.260;2024-01-30T05:55:34;13.60;;;5.65;;
15356;SDS011;7778;48.792;9.260;2024-01-30T05:58:21;10.00;;;5.68;;
15356;SDS011;7778;48.792;9.260;2024-01-30T06:01:06;9.50;;;4.47;;
15356;SDS011;7778;48.792;9.260;2024-01-30T06:03:53;8.93;;;4.95;;
15356;SDS011;7778;48.792;9.260;2024-01-30T06:06:38;8.52;;;5.13;;
15356;SDS011;7778;48.792;9.260;2024-01-30T06:09:24;8.77;;;4.50;;
15356;SDS011;7778;48.792;9.260;2024-01-30T06:12:09;10.45;;;6.10;;
15356;SDS011;7778;48.792;9.260;2024-01-30T06:14:57;10.40;;;5.25;;
15356;SDS011;7778;48.792;9.260;2024-01-30T06:17:43;9.82;;;5.15;;
15356;SDS011;7778;48.792;9.260;2024-01-30T06:20:28;12.07;;;5.32;;
15356;SDS011;7778;48.792;9.260;2024-01-30T06:23:14;12.95;;;5.18;;
15356;SDS011;7778;48.792;9.260;2024-01-30T06:25:59;13.30;;;5.65;;
15356;SDS011;7778;48.792;9.260;2024-01-30T06:28:45;9.30;;;5.22;;
15356;SDS011;7778;48.792;9.260;2024-01-30T06:31:31;11.48;;;5.78;;
15356;SDS011;7778;48.792;9.260;2024-01-30T06:34:17;9.77;;;5.43;;
15356;SDS011;7778;48.792;9.260;2024-01-30T06:37:03;15.60;;;6.35;;
15356;SDS011;7778;48.792;9.260;2024-01-30T06:39:48;10.55;;;5.00;;
15356;SDS011;7778;48.792;9.260;2024-01-30T06:42:34;8.18;;;4.75;;
15356;SDS011;7778;48.792;9.260;2024-01-30T06:45:20;13.95;;;5.20;;
15356;SDS011;7778;48.792;9.260;2024-01-30T06:48:08;8.10;;;4.68;;
15356;SDS011;7778;48.792;9.260;2024-01-30T06:50:53;9.95;;;5.00;;
15356;SDS011;7778;48.792;9.260;2024-01-30T06:53:41;7.38;;;4.63;;
15356;SDS011;7778;48.792;9.260;2024-01-30T06:56:27;6.90;;;4.00;;
15356;SDS011;7778;48.792;9.260;2024-01-30T06:59:13;10.63;;;5.00;;
15356;SDS011;7778;48.792;9.260;2024-01-30T07:01:59;10.15;;;4.72;;
15356;SDS011;7778;48.792;9.260;2024-01-30T07:04:45;11.27;;;4.72;;
15356;SDS011;7778;48.792;9.260;2024-01-30T07:07:31;8.05;;;4.95;;
15356;SDS011;7778;48.792;9.260;2024-01-30T07:10:17;8.98;;;4.63;;
15356;SDS011;7778;48.792;9.260;2024-01-30T07:13:02;9.60;;;5.40;;
15356;SDS011;7778;48.792;9.260;2024-01-30T07:15:49;10.18;;;4.93;;
15356;SDS011;7778;48.792;9.260;2024-01-30T07:18:35;10.27;;;6.05;;
15356;SDS011;7778;48.792;9.260;2024-01-30T07:21:23;10.07;;;5.00;;
15356;SDS011;7778;48.792;9.260;2024-01-30T07:24:11;7.28;;;4.50;;
15356;SDS011;7778;48.792;9.260;2024-01-30T07:26:58;9.18;;;4.78;;
15356;SDS011;7778;48.792;9.260;2024-01-30T07:29:43;8.90;;;5.55;;
15356;SDS011;7778;48.792;9.260;2024-01-30T07:32:29;10.00;;;5.38;;
15356;SDS011;7778;48.792;9.260;2024-01-30T07:35:15;11.13;;;6.07;;
15356;SDS011;7778;48.792;9.260;2024-01-30T07:38:02;14.80;;;5.70;;
15356;SDS011;7778;48.792;9.260;2024-01-30T07:40:48;9.02;;;5.63;;
15356;SDS011;7778;48.792;9.260;2024-01-30T07:43:34;9.82;;;5.35;;
15356;SDS011;7778;48.792;9.260;2024-01-30T07:46:20;9.70;;;5.38;;
15356;SDS011;7778;48.792;9.260;2024-01-30T07:49:05;10.52;;;4.70;;
15356;SDS011;7778;48.792;9.260;2024-01-30T07:51:51;12.88;;;5.40;;
15356;SDS011;7778;48.792;9.260;2024-01-30T07:54:41;13.27;;;5.88;;
15356;SDS011;7778;48.792;9.260;2024-01-30T07:57:27;11.18;;;6.40;;
15356;SDS011;7778;48.792;9.260;2024-01-30T08:00:13;10.88;;;4.95;;
15356;SDS011;7778;48.792;9.260;2024-01-30T08:03:00;19.05;;;5.30;;
15356;SDS011;7778;48.792;9.260;2024-01-30T08:05:46;8.13;;;4.88;;
15356;SDS011;7778;48.792;9.260;2024-01-30T08:08:31;10.15;;;4.93;;
15356;SDS011;7778;48.792;9.260;2024-01-30T08:11:19;5.47;;;3.80;;
15356;SDS011;7778;48.792;9.260;2024-01-30T08:14:09;6.68;;;4.38;;
15356;SDS011;7778;48.792;9.260;2024-01-30T08:16:54;7.93;;;4.32;;
15356;SDS011;7778;48.792;9.260;2024-01-30T08:19:40;8.07;;;4.68;;
15356;SDS011;7778;48.792;9.260;2024-01-30T08:22:26;10.70;;;4.82;;
15356;SDS011;7778;48.792;9.260;2024-01-30T08:25:11;7.00;;;4.68;;
15356;SDS011;7778;48.792;9.260;2024-01-30T08:27:58;9.98;;;4.97;;
15356;SDS011;7778;48.792;9.260;2024-01-30T08:30:43;8.73;;;4.40;;
15356;SDS011;7778;48.792;9.260;2024-01-30T08:33:29;8.65;;;4.53;;
15356;SDS011;7778;48.792;9.260;2024-01-30T08:36:15;8.88;;;5.05;;
15356;SDS011;7778;48.792;9.260;2024-01-30T08:39:01;8.23;;;4.88;;
15356;SDS011;7778;48.792;9.260;2024-01-30T08:41:49;8.98;;;4.40;;
15356;SDS011;7778;48.792;9.260;2024-01-30T08:44:39;9.70;;;5.10;;
15356;SDS011;7778;48.792;9.260;2024-01-30T08:47:25;10.13;;;4.38;;
15356;SDS011;7778;48.792;9.260;2024-01-30T08:50:10;7.57;;;4.18;;
15356;SDS011;7778;48.792;9.260;2024-01-30T08:52:56;6.45;;;4.25;;
15356;SDS011;7778;48.792;9.260;2024-01-30T08:55:41;7.38;;;4.22;;
15356;SDS011;7778;48.792;9.260;2024-01-30T08:58:27;5.97;;;4.40;;
15356;SDS011;7778;48.792;9.260;2024-01-30T09:01:14;13.32;;;4.35;;
15356;SDS011;7778;48.792;9.260;2024-01-30T09:04:00;8.00;;;4.47;;
15356;SDS011;7778;48.792;9.260;2024-01-30T09:06:46;5.45;;;3.72;;
15356;SDS011;7778;48.792;9.260;2024-01-30T09:09:32;11.73;;;4.50;;
15356;SDS011;7778;48.792;9.260;2024-01-30T09:12:18;6.18;;;4.20;;
15356;SDS011;7778;48.792;9.260;2024-01-30T09:15:04;16.73;;;6.90;;
15356;SDS011;7778;48.792;9.260;2024-01-30T09:17:51;11.85;;;6.65;;
15356;SDS011;7778;48.792;9.260;2024-01-30T09:20:37;13.32;;;6.18;;
15356;SDS011;7778;48.792;9.260;2024-01-30T09:23:23;9.60;;;5.10;;
15356;SDS011;7778;48.792;9.260;2024-01-30T09:26:08;7.30;;;4.28;;
15356;SDS011;7778;48.792;9.260;2024-01-30T09:28:54;6.45;;;3.83;;
15356;SDS011;7778;48.792;9.260;2024-01-30T09:31:39;7.25;;;3.50;;
15356;SDS011;7778;48.792;9.260;2024-01-30T09:34:29;6.72;;;3.80;;
15356;SDS011;7778;48.792;9.260;2024-01-30T09:37:15;6.22;;;3.50;;
15356;SDS011;7778;48.792;9.260;2024-01-30T09:40:01;7.00;;;3.50;;
15356;SDS011;7778;48.792;9.260;2024-01-30T09:42:49;5.32;;;3.03;;
15356;SDS011;7778;48.792;9.260;2024-01-30T09:45:36;11.50;;;3.10;;
15356;SDS011;7778;48.792;9.260;2024-01-30T09:48:22;5.80;;;3.38;;
15356;SDS011;7778;48.792;9.260;2024-01-30T09:51:09;5.88;;;3.38;;
15356;SDS011;7778;48.792;9.260;2024-01-30T09:53:55;4.03;;;2.65;;
15356;SDS011;7778;48.792;9.260;2024-01-30T09:56:41;4.22;;;2.90;;
15356;SDS011;7778;48.792;9.260;2024-01-30T09:59:27;7.22;;;3.50;;
15356;SDS011;7778;48.792;9.260;2024-01-30T10:02:13;5.55;;;3.22;;
15356;SDS011;7778;48.792;9.260;2024-01-30T10:04:59;5.80;;;3.42;;
15356;SDS011;7778;48.792;9.260;2024-01-30T10:07:56;5.78;;;3.35;;
15356;SDS011;7778;48.792;9.260;2024-01-30T10:10:45;7.65;;;3.92;;
15356;SDS011;7778;48.792;9.260;2024-01-30T10:13:31;13.38;;;4.60;;
15356;SDS011;7778;48.792;9.260;2024-01-30T10:16:17;9.13;;;5.88;;
15356;SDS011;7778;48.792;9.260;2024-01-30T10:19:03;8.57;;;5.07;;
15356;SDS011;7778;48.792;9.260;2024-01-30T10:21:49;7.10;;;4.70;;
15356;SDS011;7778;48.792;9.260;2024-01-30T10:24:36;10.43;;;4.85;;
15356;SDS011;7778;48.792;9.260;2024-01-30T10:27:23;6.38;;;4.38;;
15356;SDS011;7778;48.792;9.260;2024-01-30T10:30:10;10.02;;;5.05;;
15356;SDS011;7778;48.792;9.260;2024-01-30T10:32:57;8.60;;;4.50;;
15356;SDS011;7778;48.792;9.260;2024-01-30T10:35:43;7.15;;;4.82;;
15356;SDS011;7778;48.792;9.260;2024-01-30T10:38:30;7.28;;;4.78;;
15356;SDS011;7778;48.792;9.260;2024-01-30T10:41:19;8.18;;;4.07;;
15356;SDS011;7778;48.792;9.260;2024-01-30T10:44:11;9.52;;;4.78;;
15356;SDS011;7778;48.792;9.260;2024-01-30T10:47:03;7.22;;;3.97;;
15356;SDS011;7778;48.792;9.260;2024-01-30T10:49:57;6.63;;;3.97;;
15356;SDS011;7778;48.792;9.260;2024-01-30T10:52:42;6.78;;;4.00;;
15356;SDS011;7778;48.792;9.260;2024-01-30T10:55:28;9.82;;;4.68;;
15356;SDS011;7778;48.792;9.260;2024-01-30T10:58:16;6.07;;;3.80;;
15356;SDS011;7778;48.792;9.260;2024-01-30T11:01:02;4.97;;;3.35;;
15356;SDS011;7778;48.792;9.260;2024-01-30T11:03:49;5.53;;;3.55;;
15356;SDS011;7778;48.792;9.260;2024-01-30T11:06:40;7.82;;;4.70;;
15356;SDS011;7778;48.792;9.260;2024-01-30T11:09:28;8.05;;;4.53;;
15356;SDS011;7778;48.792;9.260;2024-01-30T11:12:14;9.88;;;4.70;;
15356;SDS011;7778;48.792;9.260;2024-01-30T11:15:05;7.82;;;4.68;;
15356;SDS011;7778;48.792;9.260;2024-01-30T11:17:53;7.72;;;4.78;;
15356;SDS011;7778;48.792;9.260;2024-01-30T11:20:39;8.95;;;4.80;;
15356;SDS011;7778;48.792;9.260;2024-01-30T11:23:33;6.43;;;4.53;;
15356;SDS011;7778;48.792;9.260;2024-01-30T11:26:23;9.18;;;5.18;;
15356;SDS011;7778;48.792;9.260;2024-01-30T11:29:13;7.60;;;4.80;;
15356;SDS011;7778;48.792;9.260;2024-01-30T11:32:00;9.73;;;5.60;;
15356;SDS011;7778;48.792;9.260;2024-01-30T11:34:46;6.57;;;4.45;;
15356;SDS011;7778;48.792;9.260;2024-01-30T11:37:31;8.75;;;4.55;;
15356;SDS011;7778;48.792;9.260;2024-01-30T11:40:22;9.38;;;4.00;;
15356;SDS011;7778;48.792;9.260;2024-01-30T11:43:09;6.85;;;3.90;;
15356;SDS011;7778;48.792;9.260;2024-01-30T11:45:55;8.93;;;4.32;;
15356;SDS011;7778;48.792;9.260;2024-01-30T11:48:42;6.07;;;3.70;;
15356;SDS011;7778;48.792;9.260;2024-01-30T11:51:30;4.63;;;3.45;;
15356;SDS011;7778;48.792;9.260;2024-01-30T11:54:16;6.93;;;2.83;;
15356;SDS011;7778;48.792;9.260;2024-01-30T11:57:02;6.50;;;3.33;;
15356;SDS011;7778;48.792;9.260;2024-01-30T11:59:50;5.35;;;2.90;;
15356;SDS011;7778;48.792;9.260;2024-01-30T12:02:35;5.07;;;3.17;;
15356;SDS011;7778;48.792;9.260;2024-01-30T12:05:23;7.80;;;3.70;;
15356;SDS011;7778;48.792;9.260;2024-01-30T12:08:14;5.75;;;3.28;;
15356;SDS011;7778;48.792;9.260;2024-01-30T12:11:00;5.72;;;2.92;;
15356;SDS011;7778;48.792;9.260;2024-01-30T12:13:49;6.38;;;3.90;;
15356;SDS011;7778;48.792;9.260;2024-01-30T12:16:35;4.88;;;3.50;;
15356;SDS011;7778;48.792;9.260;2024-01-30T12:19:22;6.38;;;3.42;;
15356;SDS011;7778;48.792;9.260;2024-01-30T12:22:10;6.05;;;2.70;;
15356;SDS011;7778;48.792;9.260;2024-01-30T12:24:56;4.53;;;3.00;;
15356;SDS011;7778;48.792;9.260;2024-01-30T12:27:42;5.97;;;3.33;;
15356;SDS011;7778;48.792;9.260;2024-01-30T12:30:29;5.65;;;3.00;;
15356;SDS011;7778;48.792;9.260;2024-01-30T12:33:18;9.05;;;3.10;;
15356;SDS011;7778;48.792;9.260;2024-01-30T12:36:04;6.35;;;3.35;;
15356;SDS011;7778;48.792;9.260;2024-01-30T12:38:52;6.65;;;3.75;;
15356;SDS011;7778;48.792;9.260;2024-01-30T12:41:37;6.05;;;3.20;;
15356;SDS011;7778;48.792;9.260;2024-01-30T12:44:23;4.88;;;2.97;;
15356;SDS011;7778;48.792;9.260;2024-01-30T12:47:09;5.18;;;3.13;;
15356;SDS011;7778;48.792;9.260;2024-01-30T12:49:55;6.20;;;2.83;;
15356;SDS011;7778;48.792;9.260;2024-01-30T12:52:40;4.57;;;2.63;;
15356;SDS011;7778;48.792;9.260;2024-01-30T12:55:28;6.35;;;3.30;;
15356;SDS011;7778;48.792;9.260;2024-01-30T12:58:14;7.70;;;3.85;;
15356;SDS011;7778;48.792;9.260;2024-01-30T13:00:59;8.18;;;4.45;;
15356;SDS011;7778;48.792;9.260;2024-01-30T13:03:45;8.63;;;4.20;;
15356;SDS011;7778;48.792;9.260;2024-01-30T13:06:31;11.32;;;5.10;;
15356;SDS011;7778;48.792;9.260;2024-01-30T13:09:17;7.50;;;4.38;;
15356;SDS011;7778;48.792;9.260;2024-01-30T13:12:05;5.72;;;3.60;;
15356;SDS011;7778;48.792;9.260;2024-01-30T13:14:51;7.30;;;4.25;;
15356;SDS011;7778;48.792;9.260;2024-01-30T13:17:41;11.65;;;5.75;;
15356;SDS011;7778;48.792;9.260;2024-01-30T13:20:28;10.50;;;5.03;;
15356;SDS011;7778;48.792;9.260;2024-01-30T13:23:13;15.45;;;4.97;;
15356;SDS011;7778;48.792;9.260;2024-01-30T13:25:59;12.80;;;5.10;;
15356;SDS011;7778;48.792;9.260;2024-01-30T13:28:46;10.25;;;5.25;;
15356;SDS011;7778;48.792;9.260;2024-01-30T13:31:32;10.35;;;5.38;;
15356;SDS011;7778;48.792;9.260;2024-01-30T13:34:18;13.40;;;5.43;;
15356;SDS011;7778;48.792;9.260;2024-01-30T13:37:04;12.55;;;6.35;;
15356;SDS011;7778;48.792;9.260;2024-01-30T13:39:50;11.45;;;5.88;;
15356;SDS011;7778;48.792;9.260;2024-01-30T13:42:35;10.63;;;5.35;;
15356;SDS011;7778;48.792;9.260;2024-01-30T13:45:22;13.63;;;5.70;;
15356;SDS011;7778;48.792;9.260;2024-01-30T13:48:08;19.15;;;6.18;;
15356;SDS011;7778;48.792;9.260;2024-01-30T13:50:53;14.65;;;6.25;;
15356;SDS011;7778;48.792;9.260;2024-01-30T13:53:39;12.07;;;6.60;;
15356;SDS011;7778;48.792;9.260;2024-01-30T13:56:25;12.75;;;6.05;;
15356;SDS011;7778;48.792;9.260;2024-01-30T13:59:11;10.82;;;6.47;;
15356;SDS011;7778;48.792;9.260;2024-01-30T14:01:58;14.35;;;5.72;;
15356;SDS011;7778;48.792;9.260;2024-01-30T14:04:44;13.13;;;7.43;;
15356;SDS011;7778;48.792;9.260;2024-01-30T14:07:29;12.05;;;6.70;;
15356;SDS011;7778;48.792;9.260;2024-01-30T14:10:15;12.65;;;5.75;;
15356;SDS011;7778;48.792;9.260;2024-01-30T14:13:01;21.83;;;7.45;;
15356;SDS011;7778;48.792;9.260;2024-01-30T14:15:47;13.00;;;5.93;;
15356;SDS011;7778;48.792;9.260;2024-01-30T14:18:34;12.88;;;6.82;;
15356;SDS011;7778;48.792;9.260;2024-01-30T14:21:20;12.77;;;6.43;;
15356;SDS011;7778;48.792;9.260;2024-01-30T14:24:05;14.80;;;7.60;;
15356;SDS011;7778;48.792;9.260;2024-01-30T14:26:52;10.75;;;6.82;;
15356;SDS011;7778;48.792;9.260;2024-01-30T14:29:37;13.55;;;6.75;;
15356;SDS011;7778;48.792;9.260;2024-01-30T14:32:25;13.20;;;7.20;;
15356;SDS011;7778;48.792;9.260;2024-01-30T14:35:15;8.57;;;5.25;;
15356;SDS011;7778;48.792;9.260;2024-01-30T14:38:03;10.48;;;5.90;;
15356;SDS011;7778;48.792;9.260;2024-01-30T14:40:51;10.18;;;6.40;;
15356;SDS011;7778;48.792;9.260;2024-01-30T14:43:37;12.45;;;6.40;;
15356;SDS011;7778;48.792;9.260;2024-01-30T14:46:25;10.88;;;5.85;;
15356;SDS011;7778;48.792;9.260;2024-01-30T14:49:11;8.93;;;6.22;;
15356;SDS011;7778;48.792;9.260;2024-01-30T14:52:00;9.40;;;6.20;;
15356;SDS011;7778;48.792;9.260;2024-01-30T14:54:47;7.65;;;5.15;;
15356;SDS011;7778;48.792;9.260;2024-01-30T14:57:33;10.25;;;6.65;;
15356;SDS011;7778;48.792;9.260;2024-01-30T15:00:19;9.48;;;5.85;;
15356;SDS011;7778;48.792;9.260;2024-01-30T15:03:05;13.20;;;6.13;;
15356;SDS011;7778;48.792;9.260;2024-01-30T15:05:51;12.18;;;6.50;;
15356;SDS011;7778;48.792;9.260;2024-01-30T15:08:39;17.13;;;6.82;;
15356;SDS011;7778;48.792;9.260;2024-01-30T15:11:25;11.38;;;6.13;;
15356;SDS011;7778;48.792;9.260;2024-01-30T15:14:11;14.70;;;6.93;;
15356;SDS011;7778;48.792;9.260;2024-01-30T15:17:00;11.82;;;5.82;;
15356;SDS011;7778;48.792;9.260;2024-01-30T15:19:45;10.13;;;6.75;;
15356;SDS011;7778;48.792;9.260;2024-01-30T15:22:34;10.35;;;5.65;;
15356;SDS011;7778;48.792;9.260;2024-01-30T15:25:21;8.93;;;5.13;;
15356;SDS011;7778;48.792;9.260;2024-01-30T15:28:07;7.78;;;5.38;;
15356;SDS011;7778;48.792;9.260;2024-01-30T15:30:54;8.32;;;5.28;;
15356;SDS011;7778;48.792;9.260;2024-01-30T15:33:41;10.30;;;5.18;;
15356;SDS011;7778;48.792;9.260;2024-01-30T15:36:28;9.50;;;5.40;;
15356;SDS011;7778;48.792;9.260;2024-01-30T15:39:15;11.07;;;5.97;;
15356;SDS011;7778;48.792;9.260;2024-01-30T15:42:03;9.07;;;5.72;;
15356;SDS011;7778;48.792;9.260;2024-01-30T15:44:50;7.63;;;4.82;;
15356;SDS011;7778;48.792;9.260;2024-01-30T15:47:35;8.13;;;4.90;;
15356;SDS011;7778;48.792;9.260;2024-01-30T15:50:21;8.15;;;5.07;;
15356;SDS011;7778;48.792;9.260;2024-01-30T15:53:07;9.43;;;4.93;;
15356;SDS011;7778;48.792;9.260;2024-01-30T15:55:53;9.95;;;5.22;;
15356;SDS011;7778;48.792;9.260;2024-01-30T15:58:40;8.38;;;5.40;;
15356;SDS011;7778;48.792;9.260;2024-01-30T16:01:25;11.85;;;5.80;;
15356;SDS011;7778;48.792;9.260;2024-01-30T16:04:11;10.95;;;5.45;;
15356;SDS011;7778;48.792;9.260;2024-01-30T16:06:57;9.63;;;5.43;;
15356;SDS011;7778;48.792;9.260;2024-01-30T16:09:42;10.57;;;6.10;;
15356;SDS011;7778;48.792;9.260;2024-01-30T16:12:28;12.52;;;5.82;;
15356;SDS011;7778;48.792;9.260;2024-01-30T16:15:15;13.82;;;5.95;;
15356;SDS011;7778;48.792;9.260;2024-01-30T16:18:01;9.98;;;4.85;;
15356;SDS011;7778;48.792;9.260;2024-01-30T16:20:47;10.65;;;6.22;;
15356;SDS011;7778;48.792;9.260;2024-01-30T16:23:33;11.10;;;6.10;;
15356;SDS011;7778;48.792;9.260;2024-01-30T16:26:19;9.40;;;5.43;;
15356;SDS011;7778;48.792;9.260;2024-01-30T16:29:06;11.20;;;6.72;;
15356;SDS011;7778;48.792;9.260;2024-01-30T16:31:53;30.42;;;12.02;;
15356;SDS011;7778;48.792;9.260;2024-01-30T16:34:39;15.15;;;6.95;;
15356;SDS011;7778;48.792;9.260;2024-01-30T16:37:25;22.88;;;10.85;;
15356;SDS011;7778;48.792;9.260;2024-01-30T16:40:13;22.65;;;11.38;;
15356;SDS011;7778;48.792;9.260;2024-01-30T16:42:58;14.77;;;7.47;;
15356;SDS011;7778;48.792;9.260;2024-01-30T16:45:44;14.45;;;7.53;;
15356;SDS011;7778;48.792;9.260;2024-01-30T16:48:32;13.05;;;7.35;;
15356;SDS011;7778;48.792;9.260;2024-01-30T16:51:17;11.23;;;5.97;;